createdAt,value
2023-06-19T00:01:12.195Z,17.05
2023-06-19T00:03:39.758Z,17.15
2023-06-19T00:06:07.376Z,17.21
2023-06-19T00:08:34.652Z,17.10
2023-06-19T00:11:02.088Z,17.00
2023-06-19T00:13:29.311Z,17.24
2023-06-19T00:16:01.497Z,17.12
2023-06-19T00:18:29.760Z,16.86
2023-06-19T00:20:57.919Z,16.75
2023-06-19T00:23:25.210Z,17.09
2023-06-19T00:25:52.678Z,17.33
2023-06-19T00:28:21.175Z,17.45
2023-06-19T00:30:48.487Z,17.59
2023-06-19T00:33:15.959Z,17.31
2023-06-19T00:35:43.281Z,17.42
2023-06-19T00:38:11.293Z,17.33
2023-06-19T00:40:39.040Z,17.21
2023-06-19T00:43:06.782Z,17.03
2023-06-19T00:45:34.082Z,17.01
2023-06-19T00:48:01.901Z,17.31
2023-06-19T00:50:29.846Z,17.31
2023-06-19T00:52:57.937Z,17.06
2023-06-19T00:55:26.091Z,17.33
2023-06-19T00:57:54.251Z,17.33
2023-06-19T01:00:21.712Z,17.68
2023-06-19T01:02:49.496Z,18.17
2023-06-19T01:05:17.604Z,18.34
2023-06-19T01:07:48.272Z,18.33
2023-06-19T01:10:23.174Z,17.85
2023-06-19T01:12:53.260Z,17.70
2023-06-19T01:15:20.782Z,17.88
2023-06-19T01:17:48.550Z,18.26
2023-06-19T01:20:15.988Z,18.33
2023-06-19T01:22:45.290Z,18.47
2023-06-19T01:25:15.341Z,18.37
2023-06-19T01:27:43.374Z,18.49
2023-06-19T01:30:11.583Z,18.21
2023-06-19T01:32:48.217Z,17.32
2023-06-19T01:35:18.987Z,17.05
2023-06-19T01:37:46.352Z,16.97
2023-06-19T01:40:13.647Z,16.80
2023-06-19T01:42:41.307Z,17.17
2023-06-19T01:45:08.874Z,17.46
2023-06-19T01:47:37.039Z,18.33
2023-06-19T01:50:05.228Z,18.36
2023-06-19T01:52:32.529Z,17.82
2023-06-19T01:54:59.702Z,17.87
2023-06-19T01:57:27.169Z,17.55
2023-06-19T01:59:54.364Z,17.00
2023-06-19T02:02:22.693Z,16.67
2023-06-19T02:04:50.836Z,16.57
2023-06-19T02:07:17.984Z,16.21
2023-06-19T02:09:47.557Z,16.03
2023-06-19T02:12:17.057Z,16.08
2023-06-19T02:14:44.413Z,16.43
2023-06-19T02:17:13.013Z,16.75
2023-06-19T02:19:40.466Z,16.68
2023-06-19T02:22:07.792Z,16.44
2023-06-19T02:24:35.176Z,16.50
2023-06-19T02:27:03.334Z,16.71
2023-06-19T02:29:30.979Z,16.61
2023-06-19T02:31:58.201Z,16.29
2023-06-19T02:34:25.674Z,15.87
2023-06-19T02:36:52.943Z,16.03
2023-06-19T02:39:20.192Z,17.08
2023-06-19T02:41:49.502Z,17.96
2023-06-19T02:44:16.657Z,17.34
2023-06-19T02:46:44.610Z,16.55
2023-06-19T02:49:12.165Z,16.13
2023-06-19T02:51:42.110Z,16.15
2023-06-19T02:54:09.599Z,16.53
2023-06-19T02:56:37.079Z,16.29
2023-06-19T02:59:04.248Z,16.05
2023-06-19T03:01:31.574Z,16.33
2023-06-19T03:03:59.763Z,16.15
2023-06-19T03:06:27.283Z,15.98
2023-06-19T03:08:54.526Z,16.01
2023-06-19T03:11:22.239Z,15.96
2023-06-19T03:13:53.780Z,16.20
2023-06-19T03:16:21.555Z,16.45
2023-06-19T03:18:52.561Z,16.64
2023-06-19T03:21:21.136Z,16.75
2023-06-19T03:23:49.792Z,18.07
2023-06-19T03:26:17.628Z,18.36
2023-06-19T03:28:44.812Z,18.40
2023-06-19T03:31:13.028Z,18.56
2023-06-19T03:33:40.328Z,18.00
2023-06-19T03:36:08.722Z,18.27
2023-06-19T03:38:36.785Z,18.58
2023-06-19T03:41:03.970Z,18.53
2023-06-19T03:43:31.578Z,18.38
2023-06-19T03:45:59.111Z,18.08
2023-06-19T03:48:26.352Z,18.47
2023-06-19T03:50:53.912Z,18.66
2023-06-19T03:53:22.195Z,18.89
2023-06-19T03:55:49.400Z,19.07
2023-06-19T03:58:16.583Z,19.41
2023-06-19T04:00:44.217Z,19.40
2023-06-19T04:03:12.584Z,19.26
2023-06-19T04:05:42.682Z,19.45
2023-06-19T04:08:12.373Z,19.30
2023-06-19T04:10:43.660Z,19.28
2023-06-19T04:13:10.877Z,19.71
2023-06-19T04:15:38.671Z,20.21
2023-06-19T04:18:06.339Z,20.51
2023-06-19T04:20:34.741Z,20.20
2023-06-19T04:23:02.013Z,20.47
2023-06-19T04:25:29.551Z,20.75
2023-06-19T04:27:57.314Z,20.95
2023-06-19T04:30:24.847Z,20.92
2023-06-19T04:32:54.153Z,20.97
2023-06-19T04:35:21.648Z,20.94
2023-06-19T04:37:50.076Z,20.57
2023-06-19T04:40:17.797Z,20.65
2023-06-19T04:42:45.012Z,20.96
2023-06-19T04:45:12.883Z,21.13
2023-06-19T04:47:52.550Z,20.94
2023-06-19T04:50:21.990Z,21.21
2023-06-19T04:52:51.934Z,21.26
2023-06-19T04:55:19.705Z,21.10
2023-06-19T04:57:46.965Z,21.29
2023-06-19T05:00:16.181Z,21.35
2023-06-19T05:02:46.041Z,21.49
2023-06-19T05:05:13.872Z,21.58
2023-06-19T05:07:41.450Z,20.88
2023-06-19T05:10:08.904Z,20.15
2023-06-19T05:12:36.492Z,19.54
2023-06-19T05:15:04.164Z,19.91
2023-06-19T05:17:31.540Z,20.90
2023-06-19T05:19:58.826Z,20.87
2023-06-19T05:22:27.923Z,21.09
2023-06-19T05:24:55.209Z,21.21
2023-06-19T05:27:22.392Z,21.34
2023-06-19T05:29:49.816Z,21.79
2023-06-19T05:32:17.037Z,21.90
2023-06-19T05:34:44.238Z,21.69
2023-06-19T05:37:11.760Z,22.17
2023-06-19T05:39:39.110Z,22.31
2023-06-19T05:42:06.564Z,22.17
2023-06-19T05:44:34.079Z,22.41
2023-06-19T05:47:01.313Z,22.32
2023-06-19T05:49:28.523Z,22.59
2023-06-19T05:52:00.367Z,22.94
2023-06-19T05:54:27.655Z,23.02
2023-06-19T05:56:54.941Z,22.70
2023-06-19T05:59:22.939Z,22.17
2023-06-19T06:01:51.844Z,22.77
2023-06-19T06:04:19.793Z,23.09
2023-06-19T06:06:47.042Z,23.05
2023-06-19T06:09:14.474Z,23.20
2023-06-19T06:11:41.909Z,23.60
2023-06-19T06:14:11.737Z,23.54
2023-06-19T06:16:40.475Z,23.61
2023-06-19T06:19:08.029Z,23.52
2023-06-19T06:21:36.002Z,23.78
2023-06-19T06:24:03.900Z,24.13
2023-06-19T06:26:31.347Z,24.26
2023-06-19T06:28:58.546Z,24.42
2023-06-19T06:31:25.772Z,24.68
2023-06-19T06:33:53.233Z,24.87
2023-06-19T06:36:33.824Z,24.84
2023-06-19T06:39:03.994Z,24.95
2023-06-19T06:41:31.161Z,24.73
2023-06-19T06:43:58.412Z,24.93
2023-06-19T06:46:25.981Z,25.04
2023-06-19T06:48:53.330Z,25.04
2023-06-19T06:51:20.625Z,25.17
2023-06-19T06:53:48.085Z,24.66
2023-06-19T06:56:15.293Z,25.50
2023-06-19T06:58:42.769Z,25.44
2023-06-19T07:01:10.300Z,25.49
2023-06-19T07:03:37.605Z,25.55
2023-06-19T07:06:04.858Z,25.54
2023-06-19T07:08:32.322Z,25.87
2023-06-19T07:10:59.552Z,26.29
2023-06-19T07:13:26.796Z,26.31
2023-06-19T07:15:54.377Z,26.59
2023-06-19T07:18:21.695Z,26.13
2023-06-19T07:20:48.900Z,26.68
2023-06-19T07:23:16.326Z,26.77
2023-06-19T07:25:43.668Z,27.15
2023-06-19T07:28:10.853Z,27.49
2023-06-19T07:30:38.321Z,27.34
2023-06-19T07:33:05.851Z,27.74
2023-06-19T07:35:33.092Z,28.11
2023-06-19T07:38:00.649Z,28.59
2023-06-19T07:40:28.085Z,28.93
2023-06-19T07:42:55.571Z,28.13
2023-06-19T07:45:24.556Z,28.65
2023-06-19T07:47:55.964Z,28.83
2023-06-19T07:50:25.633Z,28.91
2023-06-19T07:52:54.672Z,29.15
2023-06-19T07:55:21.950Z,29.49
2023-06-19T07:57:49.567Z,29.67
2023-06-19T08:00:16.922Z,31.01
2023-06-19T08:02:44.702Z,31.57
2023-06-19T08:05:12.365Z,32.65
2023-06-19T08:07:39.715Z,33.16
2023-06-19T08:10:25.769Z,33.04
2023-06-19T08:12:54.127Z,33.21
2023-06-19T08:15:21.949Z,33.57
2023-06-19T08:17:49.226Z,34.20
2023-06-19T08:20:16.579Z,33.64
2023-06-19T08:22:44.104Z,34.99
2023-06-19T08:25:11.529Z,34.08
2023-06-19T08:27:38.972Z,34.28
2023-06-19T08:30:06.889Z,34.54
2023-06-19T08:32:36.014Z,35.54
2023-06-19T08:35:04.179Z,35.64
2023-06-19T08:37:31.801Z,35.52
2023-06-19T08:39:59.034Z,35.78
2023-06-19T08:42:26.432Z,35.90
2023-06-19T08:44:54.604Z,35.88
2023-06-19T08:47:21.874Z,35.03
2023-06-19T08:49:49.136Z,34.89
2023-06-19T08:52:16.569Z,34.59
2023-06-19T08:54:45.445Z,34.60
2023-06-19T08:57:15.984Z,32.90
2023-06-19T08:59:50.856Z,32.52
2023-06-19T09:02:18.290Z,32.38
2023-06-19T09:04:45.819Z,31.89
2023-06-19T09:07:14.231Z,32.97
2023-06-19T09:09:45.513Z,33.16
2023-06-19T09:12:13.515Z,32.49
2023-06-19T09:14:41.687Z,33.38
2023-06-19T09:17:12.230Z,31.94
2023-06-19T09:19:47.804Z,30.85
2023-06-19T09:22:15.044Z,30.68
2023-06-19T09:24:42.797Z,30.48
2023-06-19T09:27:13.827Z,31.09
2023-06-19T09:29:44.573Z,30.73
2023-06-19T09:32:30.046Z,31.02
2023-06-19T09:35:00.656Z,30.62
2023-06-19T09:37:31.359Z,30.24
2023-06-19T09:39:59.594Z,30.46
2023-06-19T09:42:31.754Z,31.51
2023-06-19T09:45:03.746Z,30.61
2023-06-19T09:47:32.419Z,30.46
2023-06-19T09:49:59.981Z,30.82
2023-06-19T09:52:28.797Z,31.41
2023-06-19T09:54:58.854Z,30.87
2023-06-19T09:57:26.363Z,31.34
2023-06-19T09:59:54.450Z,31.62
2023-06-19T10:02:22.285Z,32.60
2023-06-19T10:04:51.005Z,32.25
2023-06-19T10:07:19.001Z,32.15
2023-06-19T10:10:15.740Z,32.23
2023-06-19T10:12:44.268Z,32.95
2023-06-19T10:15:21.526Z,33.72
2023-06-19T10:17:49.982Z,34.46
2023-06-19T10:20:22.083Z,34.21
2023-06-19T10:22:53.731Z,34.58
2023-06-19T10:25:31.170Z,33.45
2023-06-19T10:27:59.144Z,33.13
2023-06-19T10:30:26.701Z,34.25
2023-06-19T10:32:54.704Z,32.29
2023-06-19T10:35:25.839Z,32.26
2023-06-19T10:37:53.189Z,32.97
2023-06-19T10:40:20.554Z,33.94
2023-06-19T10:42:48.181Z,33.91
2023-06-19T10:45:18.753Z,34.13
2023-06-19T10:47:46.611Z,34.61
2023-06-19T10:50:14.743Z,33.62
2023-06-19T10:52:43.523Z,33.31
2023-06-19T10:55:11.430Z,33.59
2023-06-19T10:57:39.986Z,33.91
2023-06-19T11:00:14.105Z,33.66
2023-06-19T11:02:44.256Z,34.26
2023-06-19T11:05:12.800Z,32.76
2023-06-19T11:07:40.285Z,32.85
2023-06-19T11:10:08.184Z,34.12
2023-06-19T11:12:35.612Z,34.16
2023-06-19T11:15:06.415Z,34.42
2023-06-19T11:17:34.030Z,32.76
2023-06-19T11:20:01.246Z,32.87
2023-06-19T11:22:38.948Z,32.66
2023-06-19T11:25:06.704Z,32.43
2023-06-19T11:27:34.096Z,32.14
2023-06-19T11:30:01.511Z,32.95
2023-06-19T11:32:33.030Z,33.14
2023-06-19T11:35:05.451Z,33.95
2023-06-19T11:37:32.913Z,34.22
2023-06-19T11:40:00.971Z,34.38
2023-06-19T11:42:29.745Z,34.87
2023-06-19T11:44:57.727Z,34.80
2023-06-19T11:47:25.032Z,34.57
2023-06-19T11:49:52.524Z,33.76
2023-06-19T11:52:20.021Z,34.45
2023-06-19T11:54:47.744Z,35.05
2023-06-19T11:57:15.008Z,35.38
2023-06-19T11:59:42.794Z,35.79
2023-06-19T12:02:10.255Z,35.11
2023-06-19T12:04:37.911Z,35.88
2023-06-19T12:07:05.478Z,34.39
2023-06-19T12:09:35.662Z,34.87
2023-06-19T12:12:03.587Z,35.23
2023-06-19T12:14:30.801Z,35.48
2023-06-19T12:16:58.041Z,35.69
2023-06-19T12:19:26.309Z,35.52
2023-06-19T12:21:53.522Z,35.61
2023-06-19T12:24:20.788Z,35.76
2023-06-19T12:26:48.347Z,36.00
2023-06-19T12:29:15.609Z,36.18
2023-06-19T12:31:44.318Z,36.34
2023-06-19T12:34:28.806Z,36.33
2023-06-19T12:36:58.652Z,35.41
2023-06-19T12:39:27.549Z,35.87
2023-06-19T12:41:54.837Z,35.44
2023-06-19T12:44:22.588Z,35.43
2023-06-19T12:46:50.247Z,35.57
2023-06-19T12:49:17.591Z,35.83
2023-06-19T12:51:44.803Z,35.66
2023-06-19T12:54:12.221Z,35.73
2023-06-19T12:56:39.477Z,35.20
2023-06-19T12:59:06.753Z,35.46
2023-06-19T13:01:34.374Z,35.57
2023-06-19T13:04:01.886Z,35.83
2023-06-19T13:06:29.359Z,35.58
2023-06-19T13:08:56.868Z,35.93
2023-06-19T13:11:24.071Z,34.92
2023-06-19T13:13:51.294Z,35.28
2023-06-19T13:16:24.841Z,35.44
2023-06-19T13:18:57.870Z,35.46
2023-06-19T13:21:25.800Z,35.19
2023-06-19T13:23:53.041Z,35.48
2023-06-19T13:26:20.548Z,35.42
2023-06-19T13:28:48.106Z,35.71
2023-06-19T13:31:15.317Z,35.28
2023-06-19T13:33:42.505Z,35.78
2023-06-19T13:36:10.079Z,35.81
2023-06-19T13:38:37.277Z,35.79
2023-06-19T13:41:04.482Z,35.48
2023-06-19T13:43:32.653Z,34.99
2023-06-19T13:45:59.829Z,34.88
2023-06-19T13:48:27.032Z,34.82
2023-06-19T13:50:54.450Z,35.07
2023-06-19T13:53:22.764Z,34.73
2023-06-19T13:55:50.465Z,35.05
2023-06-19T13:58:18.216Z,35.23
2023-06-19T14:00:45.492Z,35.38
2023-06-19T14:03:13.902Z,35.35
2023-06-19T14:05:41.294Z,35.42
2023-06-19T14:08:09.623Z,35.41
2023-06-19T14:10:37.117Z,36.20
2023-06-19T14:13:04.327Z,35.38
2023-06-19T14:15:31.577Z,35.26
2023-06-19T14:17:59.405Z,35.40
2023-06-19T14:20:26.755Z,34.83
2023-06-19T14:22:54.171Z,35.14
2023-06-19T14:25:21.939Z,35.12
2023-06-19T14:27:49.134Z,34.35
2023-06-19T14:30:16.395Z,34.80
2023-06-19T14:32:43.923Z,34.96
2023-06-19T14:35:11.209Z,33.89
2023-06-19T14:37:38.553Z,34.47
2023-06-19T14:40:07.092Z,34.68
2023-06-19T14:42:34.280Z,34.63
2023-06-19T14:45:01.433Z,34.25
2023-06-19T14:47:29.127Z,33.09
2023-06-19T14:49:56.411Z,32.93
2023-06-19T14:52:23.605Z,32.85
2023-06-19T14:54:51.258Z,33.95
2023-06-19T14:57:18.461Z,33.85
2023-06-19T14:59:45.695Z,32.37
2023-06-19T15:02:13.285Z,33.43
2023-06-19T15:04:41.339Z,32.29
2023-06-19T15:07:08.926Z,32.70
2023-06-19T15:09:36.466Z,33.65
2023-06-19T15:12:03.814Z,33.47
2023-06-19T15:14:31.036Z,33.67
2023-06-19T15:16:58.770Z,33.19
2023-06-19T15:19:26.013Z,32.01
2023-06-19T15:21:53.252Z,32.94
2023-06-19T15:24:20.753Z,32.49
2023-06-19T15:26:48.039Z,33.61
2023-06-19T15:29:15.268Z,33.49
2023-06-19T15:31:42.702Z,33.72
2023-06-19T15:34:09.959Z,33.46
2023-06-19T15:36:37.154Z,33.18
2023-06-19T15:39:04.573Z,32.89
2023-06-19T15:41:31.817Z,32.68
2023-06-19T15:43:59.039Z,32.58
2023-06-19T15:46:26.644Z,32.44
2023-06-19T15:48:53.847Z,32.11
2023-06-19T15:51:21.041Z,32.12
2023-06-19T15:53:48.539Z,32.93
2023-06-19T15:56:15.771Z,32.80
2023-06-19T15:58:43.011Z,32.60
2023-06-19T16:01:10.637Z,32.30
2023-06-19T16:03:38.204Z,32.50
2023-06-19T16:06:08.376Z,32.80
2023-06-19T16:08:36.465Z,32.56
2023-06-19T16:11:06.047Z,32.39
2023-06-19T16:13:33.676Z,32.36
2023-06-19T16:16:00.943Z,32.37
2023-06-19T16:18:28.508Z,32.42
2023-06-19T16:20:55.725Z,33.10
2023-06-19T16:23:22.880Z,32.48
2023-06-19T16:25:50.393Z,33.01
2023-06-19T16:28:18.048Z,32.12
2023-06-19T16:30:45.248Z,32.49
2023-06-19T16:33:12.760Z,32.28
2023-06-19T16:35:39.975Z,32.63
2023-06-19T16:38:07.291Z,32.77
2023-06-19T16:40:34.806Z,32.60
2023-06-19T16:43:02.012Z,32.37
2023-06-19T16:45:29.257Z,31.72
2023-06-19T16:47:56.879Z,32.25
2023-06-19T16:50:24.575Z,32.40
2023-06-19T16:52:52.039Z,32.29
2023-06-19T16:55:23.284Z,32.40
2023-06-19T16:57:50.533Z,31.68
2023-06-19T17:00:17.987Z,31.72
2023-06-19T17:02:46.339Z,32.08
2023-06-19T17:05:13.607Z,31.93
2023-06-19T17:07:40.973Z,31.67
2023-06-19T17:10:08.679Z,31.60
2023-06-19T17:12:35.997Z,31.28
2023-06-19T17:15:03.264Z,31.54
2023-06-19T17:17:34.431Z,31.38
2023-06-19T17:20:05.879Z,31.53
2023-06-19T17:22:33.382Z,31.58
2023-06-19T17:25:00.553Z,31.42
2023-06-19T17:27:27.788Z,31.47
2023-06-19T17:29:55.379Z,30.96
2023-06-19T17:32:22.600Z,30.85
2023-06-19T17:34:49.824Z,30.96
2023-06-19T17:37:17.329Z,31.06
2023-06-19T17:39:44.547Z,31.11
2023-06-19T17:42:11.786Z,30.93
2023-06-19T17:44:39.349Z,31.25
2023-06-19T17:47:06.579Z,30.86
2023-06-19T17:49:33.808Z,30.57
2023-06-19T17:52:01.437Z,30.38
2023-06-19T17:54:28.665Z,30.33
2023-06-19T17:56:55.864Z,30.37
2023-06-19T17:59:23.335Z,30.31
2023-06-19T18:01:50.968Z,30.36
2023-06-19T18:04:18.479Z,30.19
2023-06-19T18:06:45.757Z,30.00
2023-06-19T18:09:12.970Z,30.17
2023-06-19T18:11:40.484Z,30.43
2023-06-19T18:14:07.680Z,30.77
2023-06-19T18:16:37.579Z,30.46
2023-06-19T18:19:05.969Z,29.78
2023-06-19T18:21:33.129Z,29.24
2023-06-19T18:24:02.512Z,28.95
2023-06-19T18:26:31.694Z,29.10
2023-06-19T18:28:58.914Z,29.15
2023-06-19T18:31:26.209Z,29.39
2023-06-19T18:33:54.906Z,29.67
2023-06-19T18:36:22.185Z,29.79
2023-06-19T18:38:49.420Z,30.12
2023-06-19T18:41:16.947Z,29.91
2023-06-19T18:43:44.185Z,29.72
2023-06-19T18:46:11.406Z,29.33
2023-06-19T18:48:39.171Z,28.86
2023-06-19T18:51:06.362Z,28.73
2023-06-19T18:53:33.628Z,28.23
2023-06-19T18:56:01.290Z,27.74
2023-06-19T18:58:29.563Z,27.14
2023-06-19T19:00:56.995Z,27.53
2023-06-19T19:03:24.762Z,27.00
2023-06-19T19:05:52.114Z,27.23
2023-06-19T19:08:19.385Z,27.21
2023-06-19T19:10:46.899Z,27.08
2023-06-19T19:13:14.248Z,26.92
2023-06-19T19:15:41.451Z,26.84
2023-06-19T19:18:10.217Z,26.62
2023-06-19T19:20:37.494Z,26.46
2023-06-19T19:23:04.762Z,25.93
2023-06-19T19:25:33.996Z,25.56
2023-06-19T19:28:01.370Z,26.06
2023-06-19T19:30:28.791Z,25.43
2023-06-19T19:32:56.693Z,25.42
2023-06-19T19:35:24.013Z,25.17
2023-06-19T19:37:51.159Z,25.00
2023-06-19T19:40:18.690Z,25.07
2023-06-19T19:42:45.879Z,25.45
2023-06-19T19:45:13.127Z,25.33
2023-06-19T19:47:40.606Z,25.46
2023-06-19T19:50:08.182Z,25.01
2023-06-19T19:52:35.387Z,24.70
2023-06-19T19:55:03.005Z,24.53
2023-06-19T19:57:30.238Z,24.49
2023-06-19T19:59:57.424Z,24.59
2023-06-19T20:02:25.018Z,24.44
2023-06-19T20:04:53.233Z,24.48
2023-06-19T20:07:20.422Z,24.39
2023-06-19T20:09:47.796Z,24.11
2023-06-19T20:12:20.498Z,24.02
2023-06-19T20:14:49.045Z,23.74
2023-06-19T20:17:16.685Z,23.54
2023-06-19T20:19:43.921Z,23.47
2023-06-19T20:22:11.139Z,23.66
2023-06-19T20:24:38.700Z,23.83
2023-06-19T20:27:07.887Z,23.66
2023-06-19T20:29:35.090Z,23.55
2023-06-19T20:32:02.555Z,24.18
2023-06-19T20:34:30.238Z,24.07
2023-06-19T20:36:57.813Z,23.71
2023-06-19T20:39:26.031Z,23.50
2023-06-19T20:41:53.259Z,23.71
2023-06-19T20:44:20.586Z,23.40
2023-06-19T20:46:49.769Z,23.36
2023-06-19T20:49:17.033Z,22.91
2023-06-19T20:51:44.296Z,23.02
2023-06-19T20:54:11.756Z,22.77
2023-06-19T20:56:38.902Z,23.01
2023-06-19T20:59:06.062Z,22.84
2023-06-19T21:01:33.555Z,22.93
2023-06-19T21:04:02.743Z,22.94
2023-06-19T21:06:30.946Z,23.10
2023-06-19T21:09:00.554Z,22.83
2023-06-19T21:11:27.840Z,22.78
2023-06-19T21:13:55.266Z,22.52
2023-06-19T21:16:22.819Z,22.67
2023-06-19T21:18:50.090Z,22.81
2023-06-19T21:21:17.310Z,22.53
2023-06-19T21:23:44.715Z,22.69
2023-06-19T21:26:11.944Z,22.68
2023-06-19T21:28:39.110Z,22.47
2023-06-19T21:31:06.533Z,22.01
2023-06-19T21:33:33.798Z,21.47
2023-06-19T21:36:01.209Z,21.46
2023-06-19T21:38:31.928Z,21.46
2023-06-19T21:40:59.168Z,21.90
2023-06-19T21:43:27.751Z,21.96
2023-06-19T21:45:55.639Z,21.89
2023-06-19T21:48:22.920Z,21.84
2023-06-19T21:50:50.193Z,21.89
2023-06-19T21:53:17.676Z,21.92
2023-06-19T21:55:44.899Z,21.84
2023-06-19T21:58:12.189Z,21.65
2023-06-19T22:00:39.696Z,21.46
2023-06-19T22:03:08.108Z,21.20
2023-06-19T22:05:35.489Z,21.20
2023-06-19T22:08:02.730Z,21.40
2023-06-19T22:10:30.206Z,21.17
2023-06-19T22:12:57.738Z,20.89
2023-06-19T22:15:24.962Z,20.84
2023-06-19T22:17:52.424Z,20.83
2023-06-19T22:20:19.915Z,21.02
2023-06-19T22:22:47.531Z,21.52
2023-06-19T22:25:15.295Z,21.79
2023-06-19T22:27:46.374Z,21.52
2023-06-19T22:30:16.898Z,20.99
2023-06-19T22:32:44.417Z,21.10
2023-06-19T22:35:11.732Z,21.13
2023-06-19T22:37:39.763Z,20.68
2023-06-19T22:40:08.874Z,20.75
2023-06-19T22:42:36.516Z,20.45
2023-06-19T22:45:03.957Z,20.84
2023-06-19T22:47:31.518Z,20.98
2023-06-19T22:49:58.741Z,20.89
2023-06-19T22:52:25.959Z,21.10
2023-06-19T22:54:53.435Z,20.59
2023-06-19T22:57:20.706Z,20.56
2023-06-19T22:59:47.914Z,20.64
2023-06-19T23:02:15.400Z,20.69
2023-06-19T23:04:42.606Z,20.59
2023-06-19T23:07:09.806Z,20.44
2023-06-19T23:09:37.276Z,20.40
2023-06-19T23:12:05.210Z,20.46
2023-06-19T23:14:32.378Z,20.47
2023-06-19T23:16:59.933Z,20.32
2023-06-19T23:19:27.151Z,20.15
2023-06-19T23:21:55.582Z,20.39
2023-06-19T23:24:23.311Z,20.17
2023-06-19T23:26:50.587Z,20.00
2023-06-19T23:29:17.773Z,20.03
2023-06-19T23:31:45.201Z,20.12
2023-06-19T23:34:12.450Z,20.57
2023-06-19T23:36:39.661Z,21.02
2023-06-19T23:39:07.183Z,20.59
2023-06-19T23:41:34.424Z,20.18
2023-06-19T23:44:01.623Z,20.16
2023-06-19T23:46:29.122Z,20.11
2023-06-19T23:48:56.425Z,20.07
2023-06-19T23:51:23.752Z,19.92
2023-06-19T23:53:51.218Z,19.86
2023-06-19T23:56:18.414Z,19.77
2023-06-19T23:58:45.615Z,19.76
